sensor_id;sensor_type;location;lat;lon;timestamp;temperature;humidity
20384;DHT22;46458;50.966;7.002;2024-01-11T00:00:07;-3.70;99.90
20384;DHT22;46458;50.966;7.002;2024-01-11T00:02:36;-3.70;99.90
20384;DHT22;46458;50.966;7.002;2024-01-11T00:05:06;-3.70;1.00
20384;DHT22;46458;50.966;7.002;2024-01-11T00:07:37;-3.80;99.90
20384;DHT22;46458;50.966;7.002;2024-01-11T00:10:07;-3.50;1.00
20384;DHT22;46458;50.966;7.002;2024-01-11T00:12:36;-3.70;1.00
20384;DHT22;46458;50.966;7.002;2024-01-11T00:15:05;-3.60;1.00
20384;DHT22;46458;50.966;7.002;2024-01-11T00:17:34;-3.70;1.00
20384;DHT22;46458;50.966;7.002;2024-01-11T00:20:04;-3.60;1.00
20384;DHT22;46458;50.966;7.002;2024-01-11T00:22:33;-3.70;1.00
20384;DHT22;46458;50.966;7.002;2024-01-11T00:25:05;-3.70;1.00
20384;DHT22;46458;50.966;7.002;2024-01-11T00:27:34;-3.70;1.00
20384;DHT22;46458;50.966;7.002;2024-01-11T00:30:04;-3.80;1.00
20384;DHT22;46458;50.966;7.002;2024-01-11T00:32:33;-3.60;1.00
20384;DHT22;46458;50.966;7.002;2024-01-11T00:35:02;-3.70;1.00
20384;DHT22;46458;50.966;7.002;2024-01-11T00:37:31;-3.70;1.00
20384;DHT22;46458;50.966;7.002;2024-01-11T00:40:00;-3.80;1.00
20384;DHT22;46458;50.966;7.002;2024-01-11T00:42:32;-3.60;1.00
20384;DHT22;46458;50.966;7.002;2024-01-11T00:45:01;-3.50;1.00
20384;DHT22;46458;50.966;7.002;2024-01-11T00:47:30;-3.60;1.00
20384;DHT22;46458;50.966;7.002;2024-01-11T00:49:58;-3.70;1.00
20384;DHT22;46458;50.966;7.002;2024-01-11T00:52:27;-3.80;1.00
20384;DHT22;46458;50.966;7.002;2024-01-11T00:54:56;-3.60;1.00
20384;DHT22;46458;50.966;7.002;2024-01-11T00:57:25;-3.80;1.00
20384;DHT22;46458;50.966;7.002;2024-01-11T00:59:56;-3.70;1.00
20384;DHT22;46458;50.966;7.002;2024-01-11T01:02:25;-3.80;1.00
20384;DHT22;46458;50.966;7.002;2024-01-11T01:04:54;-3.70;1.00
20384;DHT22;46458;50.966;7.002;2024-01-11T01:07:23;-3.50;30.90
20384;DHT22;46458;50.966;7.002;2024-01-11T01:09:51;-3.70;50.20
20384;DHT22;46458;50.966;7.002;2024-01-11T01:12:20;-3.60;30.70
20384;DHT22;46458;50.966;7.002;2024-01-11T01:14:51;-4.00;99.90
20384;DHT22;46458;50.966;7.002;2024-01-11T01:17:22;-3.70;99.90
20384;DHT22;46458;50.966;7.002;2024-01-11T01:19:51;-3.80;99.90
20384;DHT22;46458;50.966;7.002;2024-01-11T01:22:20;-3.80;99.90
20384;DHT22;46458;50.966;7.002;2024-01-11T01:24:48;-3.70;99.90
20384;DHT22;46458;50.966;7.002;2024-01-11T01:27:17;-3.70;99.90
20384;DHT22;46458;50.966;7.002;2024-01-11T01:29:46;-3.80;99.90
20384;DHT22;46458;50.966;7.002;2024-01-11T01:32:15;-3.80;99.90
20384;DHT22;46458;50.966;7.002;2024-01-11T01:34:46;-3.90;99.90
20384;DHT22;46458;50.966;7.002;2024-01-11T01:37:15;-3.80;99.90
20384;DHT22;46458;50.966;7.002;2024-01-11T01:39:44;-3.90;1.00
20384;DHT22;46458;50.966;7.002;2024-01-11T01:42:13;-3.90;1.00
20384;DHT22;46458;50.966;7.002;2024-01-11T01:44:42;-3.90;1.00
20384;DHT22;46458;50.966;7.002;2024-01-11T01:47:10;-3.80;1.00
20384;DHT22;46458;50.966;7.002;2024-01-11T01:49:40;-3.90;1.00
20384;DHT22;46458;50.966;7.002;2024-01-11T01:52:13;-4.00;1.00
20384;DHT22;46458;50.966;7.002;2024-01-11T01:54:43;-3.80;1.00
20384;DHT22;46458;50.966;7.002;2024-01-11T01:57:12;-3.70;1.00
20384;DHT22;46458;50.966;7.002;2024-01-11T01:59:41;-3.60;1.00
20384;DHT22;46458;50.966;7.002;2024-01-11T02:02:12;-3.60;1.00
20384;DHT22;46458;50.966;7.002;2024-01-11T02:04:41;-3.80;1.00
20384;DHT22;46458;50.966;7.002;2024-01-11T02:07:14;-4.00;1.00
20384;DHT22;46458;50.966;7.002;2024-01-11T02:09:44;-3.50;1.00
20384;DHT22;46458;50.966;7.002;2024-01-11T02:12:13;-3.90;1.00
20384;DHT22;46458;50.966;7.002;2024-01-11T02:14:42;-4.00;1.00
20384;DHT22;46458;50.966;7.002;2024-01-11T02:17:11;-3.90;1.00
20384;DHT22;46458;50.966;7.002;2024-01-11T02:19:40;-3.80;1.00
20384;DHT22;46458;50.966;7.002;2024-01-11T02:22:15;-4.00;1.00
20384;DHT22;46458;50.966;7.002;2024-01-11T02:24:49;-4.10;99.90
20384;DHT22;46458;50.966;7.002;2024-01-11T02:27:19;-4.10;99.90
20384;DHT22;46458;50.966;7.002;2024-01-11T02:29:47;-4.10;99.90
20384;DHT22;46458;50.966;7.002;2024-01-11T02:32:16;-4.00;99.90
20384;DHT22;46458;50.966;7.002;2024-01-11T02:34:45;-4.10;99.90
20384;DHT22;46458;50.966;7.002;2024-01-11T02:37:14;-4.10;99.90
20384;DHT22;46458;50.966;7.002;2024-01-11T02:39:43;-3.50;99.90
20384;DHT22;46458;50.966;7.002;2024-01-11T02:42:15;-3.60;99.90
20384;DHT22;46458;50.966;7.002;2024-01-11T02:44:44;-3.90;98.90
20384;DHT22;46458;50.966;7.002;2024-01-11T02:47:12;-3.90;32.40
20384;DHT22;46458;50.966;7.002;2024-01-11T02:49:41;-3.80;1.00
20384;DHT22;46458;50.966;7.002;2024-01-11T02:52:13;-3.90;1.00
20384;DHT22;46458;50.966;7.002;2024-01-11T02:54:41;-3.80;1.00
20384;DHT22;46458;50.966;7.002;2024-01-11T02:57:12;-3.60;1.00
20384;DHT22;46458;50.966;7.002;2024-01-11T02:59:44;-3.70;1.00
20384;DHT22;46458;50.966;7.002;2024-01-11T03:02:13;-3.60;1.00
20384;DHT22;46458;50.966;7.002;2024-01-11T03:04:41;-3.70;1.00
20384;DHT22;46458;50.966;7.002;2024-01-11T03:07:10;-3.50;1.00
20384;DHT22;46458;50.966;7.002;2024-01-11T03:09:39;-3.40;99.90
20384;DHT22;46458;50.966;7.002;2024-01-11T03:12:08;-3.60;99.90
20384;DHT22;46458;50.966;7.002;2024-01-11T03:14:37;-3.60;1.00
20384;DHT22;46458;50.966;7.002;2024-01-11T03:17:08;-3.30;1.00
20384;DHT22;46458;50.966;7.002;2024-01-11T03:19:39;-3.90;1.00
20384;DHT22;46458;50.966;7.002;2024-01-11T03:22:11;-3.90;1.00
20384;DHT22;46458;50.966;7.002;2024-01-11T03:24:40;-3.90;1.00
20384;DHT22;46458;50.966;7.002;2024-01-11T03:27:09;-4.00;92.60
20384;DHT22;46458;50.966;7.002;2024-01-11T03:29:38;-4.20;99.90
20384;DHT22;46458;50.966;7.002;2024-01-11T03:32:09;-4.40;1.00
20384;DHT22;46458;50.966;7.002;2024-01-11T03:34:39;-4.20;1.00
20384;DHT22;46458;50.966;7.002;2024-01-11T03:37:08;-4.40;1.00
20384;DHT22;46458;50.966;7.002;2024-01-11T03:39:37;-4.40;99.90
20384;DHT22;46458;50.966;7.002;2024-01-11T03:42:09;-4.30;99.90
20384;DHT22;46458;50.966;7.002;2024-01-11T03:44:38;-4.40;1.00
20384;DHT22;46458;50.966;7.002;2024-01-11T03:47:09;-4.50;1.00
20384;DHT22;46458;50.966;7.002;2024-01-11T03:49:38;-4.60;1.00
20384;DHT22;46458;50.966;7.002;2024-01-11T03:52:07;-4.70;1.00
20384;DHT22;46458;50.966;7.002;2024-01-11T03:54:36;-4.70;1.00
20384;DHT22;46458;50.966;7.002;2024-01-11T03:57:06;-4.40;99.90
20384;DHT22;46458;50.966;7.002;2024-01-11T03:59:34;-4.80;99.90
20384;DHT22;46458;50.966;7.002;2024-01-11T04:02:04;-4.80;99.90
20384;DHT22;46458;50.966;7.002;2024-01-11T04:04:35;-4.60;99.90
20384;DHT22;46458;50.966;7.002;2024-01-11T04:07:04;-4.90;99.90
20384;DHT22;46458;50.966;7.002;2024-01-11T04:09:33;-4.90;99.90
20384;DHT22;46458;50.966;7.002;2024-01-11T04:12:02;-5.00;99.90
20384;DHT22;46458;50.966;7.002;2024-01-11T04:14:37;-4.40;99.90
20384;DHT22;46458;50.966;7.002;2024-01-11T04:17:06;-5.10;99.90
20384;DHT22;46458;50.966;7.002;2024-01-11T04:19:37;-5.00;1.00
20384;DHT22;46458;50.966;7.002;2024-01-11T04:22:06;-5.10;1.00
20384;DHT22;46458;50.966;7.002;2024-01-11T04:24:35;-5.20;1.00
20384;DHT22;46458;50.966;7.002;2024-01-11T04:27:04;-5.20;1.00
20384;DHT22;46458;50.966;7.002;2024-01-11T04:29:33;-4.90;99.90
20384;DHT22;46458;50.966;7.002;2024-01-11T04:32:02;-5.10;99.90
20384;DHT22;46458;50.966;7.002;2024-01-11T04:34:31;-5.20;1.00
20384;DHT22;46458;50.966;7.002;2024-01-11T04:37:03;-5.50;1.00
20384;DHT22;46458;50.966;7.002;2024-01-11T04:39:31;-5.20;1.00
20384;DHT22;46458;50.966;7.002;2024-01-11T04:42:00;-5.30;1.00
20384;DHT22;46458;50.966;7.002;2024-01-11T04:44:32;-5.20;13.00
20384;DHT22;46458;50.966;7.002;2024-01-11T04:47:01;-5.30;99.90
20384;DHT22;46458;50.966;7.002;2024-01-11T04:49:30;-5.20;1.00
20384;DHT22;46458;50.966;7.002;2024-01-11T04:52:01;-5.30;1.00
20384;DHT22;46458;50.966;7.002;2024-01-11T04:54:30;-5.20;1.00
20384;DHT22;46458;50.966;7.002;2024-01-11T04:56:59;-5.20;99.90
20384;DHT22;46458;50.966;7.002;2024-01-11T04:59:28;-5.10;99.90
20384;DHT22;46458;50.966;7.002;2024-01-11T05:01:57;-5.30;1.00
20384;DHT22;46458;50.966;7.002;2024-01-11T05:04:26;-5.30;1.00
20384;DHT22;46458;50.966;7.002;2024-01-11T05:06:55;-5.20;1.00
20384;DHT22;46458;50.966;7.002;2024-01-11T05:09:26;-5.10;1.00
20384;DHT22;46458;50.966;7.002;2024-01-11T05:11:55;-5.10;1.00
20384;DHT22;46458;50.966;7.002;2024-01-11T05:14:24;-5.10;1.00
20384;DHT22;46458;50.966;7.002;2024-01-11T05:16:53;-5.10;1.00
20384;DHT22;46458;50.966;7.002;2024-01-11T05:19:21;-5.10;1.00
20384;DHT22;46458;50.966;7.002;2024-01-11T05:21:50;-5.20;1.00
20384;DHT22;46458;50.966;7.002;2024-01-11T05:24:19;-5.30;1.00
20384;DHT22;46458;50.966;7.002;2024-01-11T05:26:51;-5.20;1.00
20384;DHT22;46458;50.966;7.002;2024-01-11T05:29:20;-5.20;1.00
20384;DHT22;46458;50.966;7.002;2024-01-11T05:31:48;-5.20;29.40
20384;DHT22;46458;50.966;7.002;2024-01-11T05:34:17;-5.20;1.00
20384;DHT22;46458;50.966;7.002;2024-01-11T05:36:46;-4.60;1.00
20384;DHT22;46458;50.966;7.002;2024-01-11T05:39:15;-5.30;1.00
20384;DHT22;46458;50.966;7.002;2024-01-11T05:41:44;-4.90;1.00
20384;DHT22;46458;50.966;7.002;2024-01-11T05:44:15;-5.20;1.00
20384;DHT22;46458;50.966;7.002;2024-01-11T05:46:44;-5.20;1.00
20384;DHT22;46458;50.966;7.002;2024-01-11T05:49:13;-5.20;1.00
20384;DHT22;46458;50.966;7.002;2024-01-11T05:51:41;-5.20;1.00
20384;DHT22;46458;50.966;7.002;2024-01-11T05:54:10;-5.30;1.00
20384;DHT22;46458;50.966;7.002;2024-01-11T05:56:39;-5.00;1.00
20384;DHT22;46458;50.966;7.002;2024-01-11T05:59:08;-5.30;1.00
20384;DHT22;46458;50.966;7.002;2024-01-11T06:01:43;-5.40;1.00
20384;DHT22;46458;50.966;7.002;2024-01-11T06:04:12;-5.20;1.00
20384;DHT22;46458;50.966;7.002;2024-01-11T06:06:42;-5.20;66.80
20384;DHT22;46458;50.966;7.002;2024-01-11T06:09:11;-4.80;1.00
20384;DHT22;46458;50.966;7.002;2024-01-11T06:11:40;-5.10;1.00
20384;DHT22;46458;50.966;7.002;2024-01-11T06:14:08;-5.20;1.00
20384;DHT22;46458;50.966;7.002;2024-01-11T06:16:37;-5.30;1.00
20384;DHT22;46458;50.966;7.002;2024-01-11T06:19:09;-5.20;1.00
20384;DHT22;46458;50.966;7.002;2024-01-11T06:21:37;-5.10;1.00
20384;DHT22;46458;50.966;7.002;2024-01-11T06:24:06;-5.10;1.00
20384;DHT22;46458;50.966;7.002;2024-01-11T06:26:35;-5.20;72.60
20384;DHT22;46458;50.966;7.002;2024-01-11T06:29:04;-4.60;39.70
20384;DHT22;46458;50.966;7.002;2024-01-11T06:31:33;-5.20;9.60
20384;DHT22;46458;50.966;7.002;2024-01-11T06:34:02;-5.20;41.70
20384;DHT22;46458;50.966;7.002;2024-01-11T06:36:33;-5.20;99.90
20384;DHT22;46458;50.966;7.002;2024-01-11T06:39:02;-5.20;99.90
20384;DHT22;46458;50.966;7.002;2024-01-11T06:41:31;-5.10;99.90
20384;DHT22;46458;50.966;7.002;2024-01-11T06:44:00;-5.00;1.00
20384;DHT22;46458;50.966;7.002;2024-01-11T06:46:28;-4.60;1.00
20384;DHT22;46458;50.966;7.002;2024-01-11T06:48:57;-5.10;99.90
20384;DHT22;46458;50.966;7.002;2024-01-11T06:51:26;-2.40;99.90
20384;DHT22;46458;50.966;7.002;2024-01-11T06:53:58;-5.10;1.00
20384;DHT22;46458;50.966;7.002;2024-01-11T06:56:27;-5.20;1.00
20384;DHT22;46458;50.966;7.002;2024-01-11T06:58:57;-5.10;1.00
20384;DHT22;46458;50.966;7.002;2024-01-11T07:01:26;-5.00;1.00
20384;DHT22;46458;50.966;7.002;2024-01-11T07:03:55;-5.10;1.00
20384;DHT22;46458;50.966;7.002;2024-01-11T07:06:24;-4.90;1.00
20384;DHT22;46458;50.966;7.002;2024-01-11T07:08:53;-4.80;99.90
20384;DHT22;46458;50.966;7.002;2024-01-11T07:11:24;-4.90;99.90
20384;DHT22;46458;50.966;7.002;2024-01-11T07:13:53;-4.80;1.00
20384;DHT22;46458;50.966;7.002;2024-01-11T07:16:22;-4.50;1.00
20384;DHT22;46458;50.966;7.002;2024-01-11T07:18:51;-4.60;1.00
20384;DHT22;46458;50.966;7.002;2024-01-11T07:21:21;-4.70;99.90
20384;DHT22;46458;50.966;7.002;2024-01-11T07:23:55;-4.90;99.90
20384;DHT22;46458;50.966;7.002;2024-01-11T07:26:28;-4.80;1.00
20384;DHT22;46458;50.966;7.002;2024-01-11T07:28:56;-5.00;99.90
20384;DHT22;46458;50.966;7.002;2024-01-11T07:31:25;-5.00;1.00
20384;DHT22;46458;50.966;7.002;2024-01-11T07:33:55;-4.90;1.00
20384;DHT22;46458;50.966;7.002;2024-01-11T07:36:24;-5.00;54.10
20384;DHT22;46458;50.966;7.002;2024-01-11T07:38:53;-4.70;99.90
20384;DHT22;46458;50.966;7.002;2024-01-11T07:41:22;-4.70;1.00
20384;DHT22;46458;50.966;7.002;2024-01-11T07:43:53;-4.80;1.00
20384;DHT22;46458;50.966;7.002;2024-01-11T07:46:25;-5.00;1.00
20384;DHT22;46458;50.966;7.002;2024-01-11T07:48:54;-5.00;1.00
20384;DHT22;46458;50.966;7.002;2024-01-11T07:51:24;-5.00;99.90
20384;DHT22;46458;50.966;7.002;2024-01-11T07:53:54;-5.30;1.00
20384;DHT22;46458;50.966;7.002;2024-01-11T07:56:23;-5.40;99.90
20384;DHT22;46458;50.966;7.002;2024-01-11T07:58:54;-5.00;1.00
20384;DHT22;46458;50.966;7.002;2024-01-11T08:01:23;-5.40;1.00
20384;DHT22;46458;50.966;7.002;2024-01-11T08:03:52;-5.50;99.90
20384;DHT22;46458;50.966;7.002;2024-01-11T08:06:21;-5.60;99.90
20384;DHT22;46458;50.966;7.002;2024-01-11T08:08:49;-5.60;1.00
20384;DHT22;46458;50.966;7.002;2024-01-11T08:11:18;-5.50;1.00
20384;DHT22;46458;50.966;7.002;2024-01-11T08:13:47;-5.60;1.00
20384;DHT22;46458;50.966;7.002;2024-01-11T08:16:19;-5.60;1.00
20384;DHT22;46458;50.966;7.002;2024-01-11T08:18:47;-5.50;1.00
20384;DHT22;46458;50.966;7.002;2024-01-11T08:21:16;-5.50;1.00
20384;DHT22;46458;50.966;7.002;2024-01-11T08:23:45;-5.50;1.00
20384;DHT22;46458;50.966;7.002;2024-01-11T08:26:15;-5.40;1.00
20384;DHT22;46458;50.966;7.002;2024-01-11T08:28:44;-5.40;1.00
20384;DHT22;46458;50.966;7.002;2024-01-11T08:31:13;-5.30;1.00
20384;DHT22;46458;50.966;7.002;2024-01-11T08:33:45;-5.30;1.00
20384;DHT22;46458;50.966;7.002;2024-01-11T08:36:13;-5.20;1.00
20384;DHT22;46458;50.966;7.002;2024-01-11T08:38:42;-5.20;99.90
20384;DHT22;46458;50.966;7.002;2024-01-11T08:41:11;-5.20;99.90
20384;DHT22;46458;50.966;7.002;2024-01-11T08:43:40;-5.20;1.00
20384;DHT22;46458;50.966;7.002;2024-01-11T08:46:06;-5.20;1.00
20384;DHT22;46458;50.966;7.002;2024-01-11T08:48:35;-5.10;1.00
20384;DHT22;46458;50.966;7.002;2024-01-11T08:51:06;-5.00;1.00
20384;DHT22;46458;50.966;7.002;2024-01-11T08:53:35;-4.80;1.00
20384;DHT22;46458;50.966;7.002;2024-01-11T08:56:05;-4.70;1.00
20384;DHT22;46458;50.966;7.002;2024-01-11T08:58:33;-4.80;1.00
20384;DHT22;46458;50.966;7.002;2024-01-11T09:01:03;-4.70;1.00
20384;DHT22;46458;50.966;7.002;2024-01-11T09:03:32;-4.70;1.00
20384;DHT22;46458;50.966;7.002;2024-01-11T09:06:02;-4.50;87.10
20384;DHT22;46458;50.966;7.002;2024-01-11T09:08:34;-4.10;1.00
20384;DHT22;46458;50.966;7.002;2024-01-11T09:11:03;-4.60;1.00
20384;DHT22;46458;50.966;7.002;2024-01-11T09:13:32;-4.20;1.00
20384;DHT22;46458;50.966;7.002;2024-01-11T09:16:00;-4.30;1.00
20384;DHT22;46458;50.966;7.002;2024-01-11T09:18:29;-4.10;1.00
20384;DHT22;46458;50.966;7.002;2024-01-11T09:20:58;-4.30;99.90
20384;DHT22;46458;50.966;7.002;2024-01-11T09:23:27;-4.30;1.00
20384;DHT22;46458;50.966;7.002;2024-01-11T09:25:59;-4.10;99.90
20384;DHT22;46458;50.966;7.002;2024-01-11T09:28:27;-4.00;99.90
20384;DHT22;46458;50.966;7.002;2024-01-11T09:30:56;-4.00;99.90
20384;DHT22;46458;50.966;7.002;2024-01-11T09:33:25;-3.50;99.90
20384;DHT22;46458;50.966;7.002;2024-01-11T09:35:54;-3.60;1.00
20384;DHT22;46458;50.966;7.002;2024-01-11T09:38:24;-3.20;1.00
20384;DHT22;46458;50.966;7.002;2024-01-11T09:41:04;-3.30;1.00
20384;DHT22;46458;50.966;7.002;2024-01-11T09:43:35;-2.70;99.90
20384;DHT22;46458;50.966;7.002;2024-01-11T09:46:05;-2.40;1.00
20384;DHT22;46458;50.966;7.002;2024-01-11T09:48:35;-2.40;99.90
20384;DHT22;46458;50.966;7.002;2024-01-11T09:51:04;-2.00;1.00
20384;DHT22;46458;50.966;7.002;2024-01-11T09:53:36;-1.90;99.90
20384;DHT22;46458;50.966;7.002;2024-01-11T09:56:09;-1.40;59.60
20384;DHT22;46458;50.966;7.002;2024-01-11T09:58:41;-1.50;1.00
20384;DHT22;46458;50.966;7.002;2024-01-11T10:01:14;-1.50;1.00
20384;DHT22;46458;50.966;7.002;2024-01-11T10:03:44;-1.30;1.00
20384;DHT22;46458;50.966;7.002;2024-01-11T10:06:14;-0.90;1.00
20384;DHT22;46458;50.966;7.002;2024-01-11T10:08:43;-1.30;1.00
20384;DHT22;46458;50.966;7.002;2024-01-11T10:11:15;-1.00;1.00
20384;DHT22;46458;50.966;7.002;2024-01-11T10:13:44;-0.70;1.00
20384;DHT22;46458;50.966;7.002;2024-01-11T10:16:13;-0.50;1.00
20384;DHT22;46458;50.966;7.002;2024-01-11T10:18:42;-0.30;1.00
20384;DHT22;46458;50.966;7.002;2024-01-11T10:21:11;-0.50;1.00
20384;DHT22;46458;50.966;7.002;2024-01-11T10:23:40;-0.50;1.00
20384;DHT22;46458;50.966;7.002;2024-01-11T10:26:10;-0.50;1.00
20384;DHT22;46458;50.966;7.002;2024-01-11T10:28:43;-0.40;1.00
20384;DHT22;46458;50.966;7.002;2024-01-11T10:31:12;-0.40;1.00
20384;DHT22;46458;50.966;7.002;2024-01-11T10:33:41;-0.50;1.00
20384;DHT22;46458;50.966;7.002;2024-01-11T10:36:11;-0.40;1.00
20384;DHT22;46458;50.966;7.002;2024-01-11T10:38:40;-0.70;1.00
20384;DHT22;46458;50.966;7.002;2024-01-11T10:41:11;-0.60;1.00
20384;DHT22;46458;50.966;7.002;2024-01-11T10:43:44;-0.60;1.00
20384;DHT22;46458;50.966;7.002;2024-01-11T10:46:15;-0.20;1.00
20384;DHT22;46458;50.966;7.002;2024-01-11T10:48:51;-0.60;1.00
20384;DHT22;46458;50.966;7.002;2024-01-11T10:51:22;-0.80;1.00
20384;DHT22;46458;50.966;7.002;2024-01-11T10:53:53;-0.60;1.00
20384;DHT22;46458;50.966;7.002;2024-01-11T10:56:23;-0.80;1.00
20384;DHT22;46458;50.966;7.002;2024-01-11T10:58:57;-0.80;1.00
20384;DHT22;46458;50.966;7.002;2024-01-11T11:01:27;-0.70;1.00
20384;DHT22;46458;50.966;7.002;2024-01-11T11:03:57;-0.50;1.00
20384;DHT22;46458;50.966;7.002;2024-01-11T11:06:27;-0.40;1.00
20384;DHT22;46458;50.966;7.002;2024-01-11T11:08:58;-0.20;1.00
20384;DHT22;46458;50.966;7.002;2024-01-11T11:11:30;0.00;1.00
20384;DHT22;46458;50.966;7.002;2024-01-11T11:14:06;0.00;1.00
20384;DHT22;46458;50.966;7.002;2024-01-11T11:16:36;-0.10;1.00
20384;DHT22;46458;50.966;7.002;2024-01-11T11:19:06;0.20;1.00
20384;DHT22;46458;50.966;7.002;2024-01-11T11:21:42;0.30;1.00
20384;DHT22;46458;50.966;7.002;2024-01-11T11:24:11;0.80;1.00
20384;DHT22;46458;50.966;7.002;2024-01-11T11:26:39;1.00;1.00
20384;DHT22;46458;50.966;7.002;2024-01-11T11:29:11;1.10;1.00
20384;DHT22;46458;50.966;7.002;2024-01-11T11:31:43;1.30;1.00
20384;DHT22;46458;50.966;7.002;2024-01-11T11:34:13;1.30;1.00
20384;DHT22;46458;50.966;7.002;2024-01-11T11:36:46;0.90;1.00
20384;DHT22;46458;50.966;7.002;2024-01-11T11:39:16;1.00;1.00
20384;DHT22;46458;50.966;7.002;2024-01-11T11:41:45;1.10;1.00
20384;DHT22;46458;50.966;7.002;2024-01-11T11:44:18;1.30;1.00
20384;DHT22;46458;50.966;7.002;2024-01-11T11:46:48;1.20;1.00
20384;DHT22;46458;50.966;7.002;2024-01-11T11:49:16;1.30;1.00
20384;DHT22;46458;50.966;7.002;2024-01-11T11:51:45;1.30;1.00
20384;DHT22;46458;50.966;7.002;2024-01-11T11:54:14;1.80;1.00
20384;DHT22;46458;50.966;7.002;2024-01-11T11:56:44;2.00;1.00
20384;DHT22;46458;50.966;7.002;2024-01-11T11:59:14;2.20;1.00
20384;DHT22;46458;50.966;7.002;2024-01-11T12:01:45;2.00;1.00
20384;DHT22;46458;50.966;7.002;2024-01-11T12:04:15;1.90;1.00
20384;DHT22;46458;50.966;7.002;2024-01-11T12:06:44;1.70;1.00
20384;DHT22;46458;50.966;7.002;2024-01-11T12:09:18;1.70;1.00
20384;DHT22;46458;50.966;7.002;2024-01-11T12:11:50;1.70;1.00
20384;DHT22;46458;50.966;7.002;2024-01-11T12:14:19;1.70;1.00
20384;DHT22;46458;50.966;7.002;2024-01-11T12:16:58;1.70;99.90
20384;DHT22;46458;50.966;7.002;2024-01-11T12:19:29;1.70;1.00
20384;DHT22;46458;50.966;7.002;2024-01-11T12:21:58;1.80;99.90
20384;DHT22;46458;50.966;7.002;2024-01-11T12:24:27;1.90;99.90
20384;DHT22;46458;50.966;7.002;2024-01-11T12:26:56;1.80;99.90
20384;DHT22;46458;50.966;7.002;2024-01-11T12:29:28;1.70;99.90
20384;DHT22;46458;50.966;7.002;2024-01-11T12:31:59;1.70;1.00
20384;DHT22;46458;50.966;7.002;2024-01-11T12:34:29;1.80;1.00
20384;DHT22;46458;50.966;7.002;2024-01-11T12:36:58;1.70;99.90
20384;DHT22;46458;50.966;7.002;2024-01-11T12:39:31;1.80;99.90
20384;DHT22;46458;50.966;7.002;2024-01-11T12:42:00;1.80;99.90
20384;DHT22;46458;50.966;7.002;2024-01-11T12:44:29;1.70;99.90
20384;DHT22;46458;50.966;7.002;2024-01-11T12:47:01;1.80;99.90
20384;DHT22;46458;50.966;7.002;2024-01-11T12:49:31;1.70;99.90
20384;DHT22;46458;50.966;7.002;2024-01-11T12:52:00;1.50;99.90
20384;DHT22;46458;50.966;7.002;2024-01-11T12:54:32;1.60;99.90
20384;DHT22;46458;50.966;7.002;2024-01-11T12:57:02;1.70;99.90
20384;DHT22;46458;50.966;7.002;2024-01-11T12:59:31;1.60;99.90
20384;DHT22;46458;50.966;7.002;2024-01-11T13:02:03;1.60;99.90
20384;DHT22;46458;50.966;7.002;2024-01-11T13:04:34;1.60;99.90
20384;DHT22;46458;50.966;7.002;2024-01-11T13:07:03;1.70;99.90
20384;DHT22;46458;50.966;7.002;2024-01-11T13:09:32;1.60;99.90
20384;DHT22;46458;50.966;7.002;2024-01-11T13:12:01;1.60;99.90
20384;DHT22;46458;50.966;7.002;2024-01-11T13:14:30;1.80;99.90
20384;DHT22;46458;50.966;7.002;2024-01-11T13:17:02;1.70;99.90
20384;DHT22;46458;50.966;7.002;2024-01-11T13:19:31;1.70;99.90
20384;DHT22;46458;50.966;7.002;2024-01-11T13:22:02;1.60;99.90
20384;DHT22;46458;50.966;7.002;2024-01-11T13:24:31;1.50;99.90
20384;DHT22;46458;50.966;7.002;2024-01-11T13:27:00;1.50;99.90
20384;DHT22;46458;50.966;7.002;2024-01-11T13:29:29;1.50;99.90
20384;DHT22;46458;50.966;7.002;2024-01-11T13:31:58;1.40;99.90
20384;DHT22;46458;50.966;7.002;2024-01-11T13:34:29;1.40;99.90
20384;DHT22;46458;50.966;7.002;2024-01-11T13:36:58;1.40;99.90
20384;DHT22;46458;50.966;7.002;2024-01-11T13:39:28;1.40;99.90
20384;DHT22;46458;50.966;7.002;2024-01-11T13:41:57;1.40;99.90
20384;DHT22;46458;50.966;7.002;2024-01-11T13:44:26;1.40;99.90
20384;DHT22;46458;50.966;7.002;2024-01-11T13:46:55;1.40;99.90
20384;DHT22;46458;50.966;7.002;2024-01-11T13:49:24;1.30;99.90
20384;DHT22;46458;50.966;7.002;2024-01-11T13:51:55;1.30;99.90
20384;DHT22;46458;50.966;7.002;2024-01-11T13:54:24;1.20;99.90
20384;DHT22;46458;50.966;7.002;2024-01-11T13:56:53;1.20;99.90
20384;DHT22;46458;50.966;7.002;2024-01-11T13:59:22;1.20;99.90
20384;DHT22;46458;50.966;7.002;2024-01-11T14:01:50;1.20;99.90
20384;DHT22;46458;50.966;7.002;2024-01-11T14:04:19;1.20;99.90
20384;DHT22;46458;50.966;7.002;2024-01-11T14:06:49;1.20;99.90
20384;DHT22;46458;50.966;7.002;2024-01-11T14:09:21;1.10;99.90
20384;DHT22;46458;50.966;7.002;2024-01-11T14:11:50;1.20;99.90
20384;DHT22;46458;50.966;7.002;2024-01-11T14:14:19;1.10;99.90
20384;DHT22;46458;50.966;7.002;2024-01-11T14:16:48;1.20;99.90
20384;DHT22;46458;50.966;7.002;2024-01-11T14:19:17;1.20;99.90
20384;DHT22;46458;50.966;7.002;2024-01-11T14:21:46;1.10;99.90
20384;DHT22;46458;50.966;7.002;2024-01-11T14:24:16;1.10;99.90
20384;DHT22;46458;50.966;7.002;2024-01-11T14:26:48;1.10;99.90
20384;DHT22;46458;50.966;7.002;2024-01-11T14:29:16;1.10;99.90
20384;DHT22;46458;50.966;7.002;2024-01-11T14:31:45;1.10;99.90
20384;DHT22;46458;50.966;7.002;2024-01-11T14:34:14;1.10;99.90
20384;DHT22;46458;50.966;7.002;2024-01-11T14:36:43;1.10;99.90
20384;DHT22;46458;50.966;7.002;2024-01-11T14:39:12;1.10;99.90
20384;DHT22;46458;50.966;7.002;2024-01-11T14:41:41;1.10;99.90
20384;DHT22;46458;50.966;7.002;2024-01-11T14:44:14;1.10;99.90
20384;DHT22;46458;50.966;7.002;2024-01-11T14:46:42;1.10;99.90
20384;DHT22;46458;50.966;7.002;2024-01-11T14:49:11;1.20;99.90
20384;DHT22;46458;50.966;7.002;2024-01-11T14:51:40;1.10;99.90
20384;DHT22;46458;50.966;7.002;2024-01-11T14:54:09;1.10;99.90
20384;DHT22;46458;50.966;7.002;2024-01-11T14:56:38;1.10;99.90
20384;DHT22;46458;50.966;7.002;2024-01-11T14:59:06;1.10;99.90
20384;DHT22;46458;50.966;7.002;2024-01-11T15:01:38;1.00;99.90
20384;DHT22;46458;50.966;7.002;2024-01-11T15:04:07;1.00;99.90
20384;DHT22;46458;50.966;7.002;2024-01-11T15:06:36;1.00;99.90
20384;DHT22;46458;50.966;7.002;2024-01-11T15:09:04;1.00;99.90
20384;DHT22;46458;50.966;7.002;2024-01-11T15:11:37;0.90;99.90
20384;DHT22;46458;50.966;7.002;2024-01-11T15:14:06;0.80;99.90
20384;DHT22;46458;50.966;7.002;2024-01-11T15:16:38;0.70;99.90
20384;DHT22;46458;50.966;7.002;2024-01-11T15:19:10;0.60;99.90
20384;DHT22;46458;50.966;7.002;2024-01-11T15:21:39;0.70;99.90
20384;DHT22;46458;50.966;7.002;2024-01-11T15:24:08;0.70;99.90
20384;DHT22;46458;50.966;7.002;2024-01-11T15:26:37;0.50;99.90
20384;DHT22;46458;50.966;7.002;2024-01-11T15:29:06;0.50;99.90
20384;DHT22;46458;50.966;7.002;2024-01-11T15:31:37;0.60;99.90
20384;DHT22;46458;50.966;7.002;2024-01-11T15:34:09;0.50;99.90
20384;DHT22;46458;50.966;7.002;2024-01-11T15:36:38;0.60;99.90
20384;DHT22;46458;50.966;7.002;2024-01-11T15:39:07;0.50;99.90
20384;DHT22;46458;50.966;7.002;2024-01-11T15:41:36;0.40;99.90
20384;DHT22;46458;50.966;7.002;2024-01-11T15:44:06;0.40;99.90
20384;DHT22;46458;50.966;7.002;2024-01-11T15:46:33;0.30;99.90
20384;DHT22;46458;50.966;7.002;2024-01-11T15:49:05;0.30;99.90
20384;DHT22;46458;50.966;7.002;2024-01-11T15:51:34;0.30;99.90
20384;DHT22;46458;50.966;7.002;2024-01-11T15:54:03;0.30;99.90
20384;DHT22;46458;50.966;7.002;2024-01-11T15:56:32;0.40;99.90
20384;DHT22;46458;50.966;7.002;2024-01-11T15:59:01;0.40;99.90